TimeCDT,TemperatureF,Dew PointF,Humidity,Sea Level PressureIn,VisibilityMPH,Wind Direction,Wind SpeedMPH,Gust SpeedMPH,PrecipitationIn,Events,Conditions,WindDirDegrees,DateUTC
12:53 AM,62.1,46.9,58,29.81,10.0,South,9.2,-,N/A,,Clear,180,2012-10-20 05:53:00
1:53 AM,64.9,43.0,45,29.78,10.0,SSW,12.7,-,N/A,,Clear,210,2012-10-20 06:53:00
2:53 AM,64.0,43.0,46,29.78,10.0,SSW,15.0,-,N/A,,Clear,210,2012-10-20 07:53:00
3:53 AM,64.0,43.0,46,29.76,10.0,SW,16.1,-,N/A,,Clear,220,2012-10-20 08:53:00
5:53 AM,64.9,39.9,40,29.75,10.0,SW,13.8,-,N/A,,Clear,220,2012-10-20 10:53:00
6:53 AM,64.0,39.0,40,29.76,10.0,SW,15.0,-,N/A,,Clear,220,2012-10-20 11:53:00
7:53 AM,63.0,39.9,43,29.78,10.0,SW,13.8,-,N/A,,Unknown,220,2012-10-20 12:53:00
8:53 AM,66.0,41.0,40,29.79,10.0,SW,12.7,-,N/A,,Unknown,220,2012-10-20 13:53:00
9:53 AM,73.9,43.0,33,29.80,10.0,SW,11.5,-,N/A,,Clear,220,2012-10-20 14:53:00
10:53 AM,81.0,44.1,27,29.78,10.0,SW,11.5,-,N/A,,Clear,220,2012-10-20 15:53:00
11:53 AM,87.1,45.0,23,29.77,10.0,WSW,16.1,21.9,N/A,,Clear,240,2012-10-20 16:53:00
12:53 PM,88.0,45.0,22,29.75,10.0,WSW,10.4,-,N/A,,Clear,250,2012-10-20 17:53:00
1:53 PM,89.1,45.0,22,29.72,10.0,WSW,13.8,20.7,N/A,,Clear,240,2012-10-20 18:53:00
2:53 PM,89.1,44.1,21,29.68,10.0,SW,18.4,23.0,N/A,,Clear,230,2012-10-20 19:53:00
3:53 PM,89.1,45.0,22,29.68,10.0,WSW,13.8,-,N/A,,Clear,240,2012-10-20 20:53:00
4:53 PM,87.1,43.0,21,29.68,10.0,WNW,5.8,-,N/A,,Clear,290,2012-10-20 21:53:00
5:53 PM,89.1,46.0,22,29.67,10.0,North,6.9,-,N/A,,Clear,10,2012-10-20 22:53:00
6:53 PM,82.9,48.9,31,29.68,10.0,NE,4.6,-,N/A,,Clear,40,2012-10-20 23:53:00
7:53 PM,80.1,48.9,34,29.69,10.0,ESE,5.8,-,N/A,,Clear,110,2012-10-21 00:53:00
8:53 PM,72.0,48.9,44,29.71,10.0,NW,8.1,-,N/A,,Clear,310,2012-10-21 01:53:00
9:53 PM,75.9,48.9,38,29.72,10.0,South,11.5,-,N/A,,Clear,180,2012-10-21 02:53:00
10:53 PM,73.0,52.0,48,29.73,10.0,South,10.4,-,N/A,,Clear,170,2012-10-21 03:53:00
11:53 PM,72.0,55.0,55,29.71,10.0,South,5.8,-,N/A,,Clear,170,2012-10-21 04:53:00